Rating List


Tournament directors can view a complete rating list of all members both current and past. Right click on view to save this comma delimited text file so it can be imported to any database, spreadsheet or word processor you want. The file contains CFC Numbers, Names, Expiry Dates, Ratings (both active and regular) and Rating Indicators.

Ratings Calculator


Tournament players can calculate the approximate value of their new rating ahead of the weekly ratings update.

Player Information

Richard Pua
RatingHighest RatingActive RatingActive HighestFIDE RatingCFC#ExpiryCity/Prov
197221192202301312132017-07-01Edmonton, AB
View this player's FIDE Rating

Tournament Name

Tournament Date

Type

Games

Pre-Rating

Perf-Rating

Post-Rating

Total

U2000 Preliminary Rounds 2016-12-30 R 4 1850 2234 1972 4.0
ECC Autumn Open 2016-10-27 R 2 1850 1854 1850 2.0
ECC Summer Open 2016-08-25 R 1 1854 1767 1850 4.0
ECC Spring Open 2016-06-30 R 3 1858 1824 1854 4.0
ECC Capablanca Classic 2016-04-28 R 5 1859 1845 1858 2.5
U2000 Preliminary Rounds 2015-12-30 R 3 1913 1466 1859 0.0
ECC Autumn Open 2015-10-29 R 2 1931 1714 1913 3.5
2015 Alberta Open 2015-10-12 R 1 1931 1464 1931 1.5
2015 ECC Summer Open 2015-08-27 R 8 1866 2024 1931 5.0
2015 ECC Capablanca Classic 2015-06-25 R 6 1846 1950 1866 4.0
2015 ECC Spring Open 2015-04-30 R 7 1881 1730 1846 3.5
Under 2000 Final Rounds 2015-04-20 R 1 1882 1871 1881 0.5
7th Calgary International Open 2014-11-09 R 2 1906 1564 1882 1.0
U2000 Preliminary Rounds 2014-10-31 R 3 1917 1743 1897 0.5
Geoff Newton Memorial B 2014-10-26 R 5 1897 1928 1906 4.0
2014 Club Championship 2014-09-30 R 1 1931 1515 1917 0.5
2014 ECC Capablanca Classic 2014-05-29 R 3 1951 1790 1931 3.0
2014 FMCC April Fools - A 2014-03-29 R 3 1986 1643 1951 1.5
2014 ECC Edmonton Reserves 2014-02-28 R 6 2038 1773 1986 3.5
2013 ECC November Open 2013-11-28 R 2 2032 2117 2038 1.5
19th Medicine Hat Open 2013-10-06 R 4 2071 1817 2032 2.0
2013 Battle of Alberta 2013-09-07 R 2 2075 2014 2071 0.5
2013 ECC August Open 2013-08-29 R 3 2059 2186 2075 2.5
2013 Select Six Sectional 2013-08-18 R 5 2058 2061 2059 3.0
2013 Fort McMurray Open 2013-07-07 R 4 2089 1579 2058 2.5
Pua-Sequillion Match 2013-06-28 R 4 2065 2203 2089 2.0
30th Trumpeter Classic 2013-06-02 R 4 2072 1989 2065 2.5
2013 Calgary International 2013-05-20 R 9 2085 2073 2072 1.5
2013 ECC April Open 2013-04-25 R 1 2083 2042 2085 2.5
2013 Lethbridge Open 2013-04-07 R 5 2119 1864 2083 3.5
2013 Alberta Closed Ch Reserves 2013-03-31 R 4 2083 2117 2119 3.5
2013 ECC Capablanca Classic 2013-03-28 R 2 2077 2083 2083 2.0
2013 Edmonton Closed Ch 2013-02-28 R 4 2043 2170 2077 1.5
2013 Northern Alberta Open 2013-02-17 R 1 2042 1921 2043 2.5
ECC Cor Dewindt Memorial 2012-11-29 R 2 2044 2013 2042 3.0
Pua vs Zeggelaar Match 2012-10-23 R 4 2004 2250 2044 3.0
2012 ECC Frank Anderson Memorial 2012-08-30 R 2 2006 1778 2004 1.5
2012 Calgary Summer Open 2012-07-22 R 4 2002 1937 2006 2.5
2012 Canada Day Challenge Match 2012-07-01 R 1 1996 2133 2002 1.0
ECC Short Knights of Summer Open 2012-06-28 R 4 2012 1934 1996 2.0
2012 AB Reserves Ch 2012-04-08 R 3 2020 1934 2012 2.5
ECC Capablanca Classic 2012-03-29 R 2 2047 1738 2020 0.0
2012 Northern Alberta Open 2012-02-19 R 3 2037 2068 2047 2.5
2011 WBX Team Tournament 2011-12-18 R 6 2050 1951 2037 4.0
2011 Southern AB Open 2011-11-20 R 2 2031 2272 2050 3.0
2011 Edmonton Fall Sectional B 2011-10-30 R 5 2010 2096 2031 3.5
ECC August Open 2011-08-25 R 2 2005 2086 2010 1.5
2011 ECC Summer Open 2011-06-30 R 4 2012 1976 2005 3.0
Select Six Section A 2011-05-08 R 5 1988 2082 2012 3.0
2011 ECC Skeel Memorial 2011-04-29 R 1 1995 1820 1988 0.0
2011 Alberta Reserves Ch 2011-04-24 R 2 1986 1929 1995 2.0
2011 March of Kings 2011-03-06 R 1 1978 2174 1986 1.5
2011 Northern Alberta Open 2011-02-20 R 4 1982 1952 1978 2.5
2010 WBX Team Tournament 2010-12-19 R 5 1962 2013 1982 3.5
ECC Hollowach Challenge 2010-08-26 R 1 1967 1828 1962 1.0
ECC Summer Open 2010-06-24 R 3 1962 1996 1967 1.0
2010 Edmonton Ch 2010-02-25 R 2 1972 1822 1962 0.0
2010 Northern Alberta Open 2010-02-21 R 1 1985 1516 1972 1.0
ECC U2000 Knockout Matches 2009-12-30 R 2 1977 2042 1985 1.0
WBX Team Tournament 2009 2009-12-20 R 5 1963 1988 1977 3.5
ECC November Open 2009-11-26 R 4 1951 2004 1963 2.0
ECC August Sectional Group B 2009-08-09 R 5 1945 1956 1951 3.0
U2000 Preliminary Matches 2009-07-07 R 2 1921 2196 1945 1.5
ECC Summer Open 2009-06-25 R 1 1906 2254 1921 2.0
Warm Up Your Engines Open 2009-05-31 R 2 1901 1973 1906 1.0
2009 Alberta Reserves 2009-04-12 R 2 1916 1700 1901 0.5
Northern Alberta Open 2009-03-01 R 5 1949 1703 1916 2.5
Edmonton Reserves 2009-02-27 R 1 1977 1198 1949 0.5
2009 Schleinich Memorial Section A 2009-01-04 R 5 1981 1931 1977 1.5
2008 WBX Team Tournament 2008-12-14 R 1 1969 2257 1981 0.5
ECC Halloween Open 2008-10-30 R 4 1918 2158 1969 3.0
ECC Ottosen Open 2008-08-28 R 1 1904 2234 1918 2.0
Pedersen Pua U2000 2008-08-12 R 2 1919 1709 1904 0.5
U2000 Championship Preliminaries 2008-06-30 R 2 1884 2296 1919 2.0
ECC Capablanca Classic 2008-03-27 R 2 1901 1635 1884 1.5
Alberta Reserves 2008 2008-03-23 R 4 1924 1725 1901 2.5
Northern Alberta Open 2008-02-17 R 5 1924 1886 1924 3.0
25th Annual Trumpeter Classic 2008-01-27 R 5 1940 1830 1924 3.0
ECC Christmas Open 2007-12-27 R 1 1952 1656 1940 0.0
ECC Kristiania Open 2007-11-29 R 1 1958 1823 1952 0.0
ECC Halloween Open 2007-10-25 R 1 1978 1492 1958 1.5
2007 Alberta Open 2007-10-08 R 4 1965 2003 1978 2.0
ECC Back To School Open 2007-09-27 R 2 1964 1978 1965 1.0
2007 August Edmonton Section C 2007-08-05 R 5 1936 2077 1964 3.5
ECC Ottosen Open 2007-06-28 R 1 1942 1781 1936 0.0
2007 Calgary June Sectional C 2007-06-24 R 5 1923 2022 1942 3.5
ECC Hollowach Challenge 2007-05-31 R 1 1933 1684 1923 0.5
ECC Skeel Memorial 2007-04-26 R 2 1942 1825 1933 1.5
2007 Edmonton Championship 2007-02-22 R 3 1938 2006 1942 1.0
2007 Northern Alberta Open 2007-02-18 R 4 1987 1589 1938 2.0
ECC Christmas Open 2006-12-28 R 3 1968 2150 1987 1.5
2006 Alberta Open 2006-10-09 R 6 1858 1867 1866 3.5
2006 ECC Autumn Open 2006-09-28 R 3 1866 1809 1859 2.0
ACA Over 1800 Open 2006-09-03 R 4 1857 1858 1858 1.5
ECC Frank Anderson Memorial 2006-07-31 R 3 1844 1954 1857 2.5
Caissas Temple Open 2006-06-30 R 2 1846 1813 1844 2.5
ECC Hollowach Challenge 2006-05-25 R 1 1833 2173 1846 2.5
Lethbridge Open 2006 2006-04-02 R 5 1848 1775 1833 3.0
Edmonton Chess Chmp 2006 2006-02-23 R 2 1849 1821 1848 0.5
ECC Reserves 2006 2006-02-23 R 2 1853 1792 1849 2.5
Northern Alberta Open 2006 2006-02-05 R 2 1876 1574 1853 1.0
Weekend Before Xmas Open 2005-12-18 R 2 1881 1712 1876 2.0
ECC Halloween Sectional B 2005-10-30 R 5 1892 1836 1881 2.0
Alberta Open 2005 2005-10-10 R 6 1884 1854 1885 3.5
ECC Back To School Open 2005-09-30 R 3 1885 1868 1892 3.0
ECC August Open 2005-08-25 R 2 1868 2062 1884 2.0
2005 Canadian Open 2005-07-17 R 2 1856 2008 1868 2.5
Edmonton June Sectional C 2005-06-12 R 5 1844 1910 1856 3.5
Keres Memorial U2000 2005-05-23 R 6 1843 1845 1844 4.0
Univ of Alberta Open 2005-05-08 R 1 1853 1599 1843 0.5
ECC Hollowach Challenge 2005-04-28 R 1 1860 1675 1853 1.5
Edmonton Spring Sectional E 2005-04-03 R 5 1832 1978 1860 4.0
ECC March Open 2005-03-31 R 1 1782 1930 1788 1.0
Jason Wihnon vs Richard Pua 2005-03-31 R 4 1788 2067 1832 3.5
Edmonton Reserves 2005 2005-03-03 R 7 1805 1678 1782 5.0
Northern Alberta Open Open Section 2005-02-06 R 4 1811 1808 1805 2.0
ECC Christmas Open 2004 2004-12-30 R 2 1789 2053 1811 3.0
Weekend Before Xmas Open 2004-12-19 R 2 1790 1757 1789 2.0
ECC Dance of Power 2004-11-25 R 1 1786 1840 1790 1.0
ECC Halloween Open 2004-10-28 R 1 1780 1905 1786 2.0
Alberta Open 2004 2004-10-11 R 6 1772 1848 1780 3.0
Back to School Open 2004 2004-09-30 R 2 1792 1521 1772 1.5
Edmonton September Sectional D 2004-09-23 R 5 1766 1899 1792 3.5
Edmonton CC Fall Under 1800 2004-09-05 R 5 1750 1837 1766 3.5
ECC August Open 2004-08-26 R 4 1736 1813 1750 2.5
ECC Summer Swiss 2004-07-29 R 1 1744 1546 1736 1.5
ECC Skeel Memorial 2004-06-24 R 3 1758 1635 1744 1.5
June Sectional Section E 2004-06-06 R 5 1782 1663 1758 2.0
ECC Capablanca Classic 2004-05-27 R 4 1805 1627 1782 2.0
Grand 7 Open 2004-05-23 R 6 1798 1769 1805 4.0
ECC Hollowach Challenge 2004-05-08 R 1 1796 1769 1798 3.0
Alberta Reserves 2004-04-11 R 2 1768 2109 1796 2.0
ECC Spring Open 2004-03-25 R 2 1775 1638 1768 2.5
ECC March Sectional E 2004-03-07 R 5 1857 1450 1775 0.5
Edmonton Closed Reserves 2004-02-26 R 7 1795 1991 1857 4.0
Northern Alberta Open 2004-02-22 R 2 1804 1635 1795 1.0
Trumpeter Classic 2004-01-18 R 5 1796 1814 1804 3.0
Weekend Before Christmas 2003-12-21 R 5 1810 1706 1796 3.0
ECC Dance O Power 2003-11-30 R 2 1818 1536 1810 1.0
ECC Halloween Open 2003-10-30 R 4 1786 1935 1818 3.5
Saskatoon Open 2003-09-27 R 5 1720 1948 1786 4.0
Back to School Open 2003-09-25 R 4 1695 1838 1720 2.5
Abe Yanofsky Memorial U2000 2003-09-01 R 6 1639 1874 1695 3.5
ECC August Open 2003-08-28 R 3 1635 1657 1639 2.0
ECC Summer Swiss 2003-07-31 R 4 1635 1623 1635 2.5
ECC Skeel Memorial 2003-06-26 R 4 1657 1490 1635 2.0
Capablanca Classic 2003-05-29 R 4 1677 1495 1657 2.5
March Sectional E 2003-04-08 R 5 1713 1533 1677 1.5
Northern Alberta Open 2003-02-23 R 5 1696 1774 1713 2.5
Wihnon vs Pua 2002-12-30 R 4 1740 1463 1696 0.5
Stark vs Pua 2002-11-15 R 4 1714 1868 1740 2.5
2002 Alberta Open 2002-10-14 R 6 1643 1862 1714 2.5
August Open 2002-08-29 R 4 1647 1562 1643 1.5
Return of the Rock Lacroix Open 2002-08-18 R 5 1683 1612 1664 1.5
Heritage Day Open 2002-08-04 R 5 1664 1538 1647 2.0
Summer Swiss Open 2002-07-25 R 4 1643 1893 1683 2.0
ECC Art Skeel Memorial 2002-06-27 R 4 1647 1601 1643 2.5
ECC Capablanca Classic 2002-05-30 R 4 1679 1478 1647 1.5
2002 April Open 2002-04-28 R 5 1604 1898 1679 3.0
Alberta Reserves 2002-02-17 R 4 1695 1345 1604 1.5
Two Weeks Before Christmas 2001-12-16 R 4 1691 1701 1695 2.0
September Thursdays 2001-09-27 R 3 1811 1530 1691 1.0
Rock vs Pua 2001-08-14 R 4 0 1811 1811 3.0
2013 Rapid Playoffs Edmonton Ch 2013-03-07 A 2 2037 2284 2202 1.5
Edmonton Churchill Square Active 2006-08-27 A 0 1662 0 1662 0.0
Edmonton September Active 2005-09-25 A 4 1613 1822 1662 2.5
Edmonton Active Invitational 2005-05-29 A 5 1567 1693 1613 1.0
Edmonton Chess Club Active 2003-12-18 A 3 1459 1777 1567 3.5
Alberta Active Championship 2003-07-26 A 6 0 1453 1459 2.5